sensor_id;sensor_type;location;lat;lon;timestamp;pressure;altitude;pressure_sealevel;temperature;humidity
21240;BME280;10778;48.962;9.018;2023-02-28T00:01:29;99879.09;;;-2.59;77.70
21240;BME280;10778;48.962;9.018;2023-02-28T00:03:56;99881.78;;;-2.64;77.73
21240;BME280;10778;48.962;9.018;2023-02-28T00:06:23;99879.97;;;-2.60;78.22
21240;BME280;10778;48.962;9.018;2023-02-28T00:08:53;99875.56;;;-2.55;78.08
21240;BME280;10778;48.962;9.018;2023-02-28T00:11:19;99879.94;;;-2.59;78.40
21240;BME280;10778;48.962;9.018;2023-02-28T00:13:46;99877.28;;;-2.55;78.32
21240;BME280;10778;48.962;9.018;2023-02-28T00:16:20;99873.91;;;-2.58;78.84
21240;BME280;10778;48.962;9.018;2023-02-28T00:18:52;99883.25;;;-2.53;78.49
21240;BME280;10778;48.962;9.018;2023-02-28T00:21:19;99881.84;;;-2.67;78.41
21240;BME280;10778;48.962;9.018;2023-02-28T00:23:45;99876.00;;;-2.74;79.06
21240;BME280;10778;48.962;9.018;2023-02-28T00:26:12;99872.59;;;-2.76;78.97
21240;BME280;10778;48.962;9.018;2023-02-28T00:28:41;99876.03;;;-2.75;79.98
21240;BME280;10778;48.962;9.018;2023-02-28T00:31:07;99872.81;;;-2.87;79.92
21240;BME280;10778;48.962;9.018;2023-02-28T00:33:34;99873.84;;;-2.94;79.89
21240;BME280;10778;48.962;9.018;2023-02-28T00:36:09;99874.69;;;-2.93;80.69
21240;BME280;10778;48.962;9.018;2023-02-28T00:38:36;99864.38;;;-2.92;79.90
21240;BME280;10778;48.962;9.018;2023-02-28T00:41:02;99870.47;;;-2.97;80.92
21240;BME280;10778;48.962;9.018;2023-02-28T00:43:32;99873.88;;;-2.95;80.96
21240;BME280;10778;48.962;9.018;2023-02-28T00:45:58;99872.97;;;-2.93;80.28
21240;BME280;10778;48.962;9.018;2023-02-28T00:48:24;99867.00;;;-2.95;80.50
21240;BME280;10778;48.962;9.018;2023-02-28T00:50:50;99868.06;;;-3.04;80.63
21240;BME280;10778;48.962;9.018;2023-02-28T00:53:17;99864.69;;;-3.07;81.67
21240;BME280;10778;48.962;9.018;2023-02-28T00:55:44;99867.34;;;-3.12;81.20
21240;BME280;10778;48.962;9.018;2023-02-28T00:58:10;99859.53;;;-3.06;81.37
21240;BME280;10778;48.962;9.018;2023-02-28T01:00:36;99864.84;;;-3.15;81.78
21240;BME280;10778;48.962;9.018;2023-02-28T01:03:02;99865.66;;;-3.13;81.88
21240;BME280;10778;48.962;9.018;2023-02-28T01:05:28;99863.31;;;-3.24;82.36
21240;BME280;10778;48.962;9.018;2023-02-28T01:07:54;99860.75;;;-3.24;82.30
21240;BME280;10778;48.962;9.018;2023-02-28T01:10:23;99858.97;;;-3.22;81.83
21240;BME280;10778;48.962;9.018;2023-02-28T01:12:52;99870.16;;;-3.23;81.96
21240;BME280;10778;48.962;9.018;2023-02-28T01:15:18;99868.53;;;-3.27;82.53
21240;BME280;10778;48.962;9.018;2023-02-28T01:17:46;99868.59;;;-3.30;82.51
21240;BME280;10778;48.962;9.018;2023-02-28T01:20:12;99863.41;;;-3.29;82.67
21240;BME280;10778;48.962;9.018;2023-02-28T01:22:38;99865.22;;;-3.32;82.67
21240;BME280;10778;48.962;9.018;2023-02-28T01:25:04;99856.72;;;-3.37;82.84
21240;BME280;10778;48.962;9.018;2023-02-28T01:27:31;99860.25;;;-3.41;83.00
21240;BME280;10778;48.962;9.018;2023-02-28T01:29:58;99858.25;;;-3.27;83.64
21240;BME280;10778;48.962;9.018;2023-02-28T01:32:24;99855.75;;;-3.32;83.63
21240;BME280;10778;48.962;9.018;2023-02-28T01:34:50;99853.03;;;-3.25;83.58
21240;BME280;10778;48.962;9.018;2023-02-28T01:37:16;99860.75;;;-3.24;83.17
21240;BME280;10778;48.962;9.018;2023-02-28T01:39:43;99854.72;;;-3.23;83.27
21240;BME280;10778;48.962;9.018;2023-02-28T01:42:09;99859.06;;;-3.26;83.06
21240;BME280;10778;48.962;9.018;2023-02-28T01:47:30;99862.56;;;-3.29;84.42
21240;BME280;10778;48.962;9.018;2023-02-28T01:49:58;99856.50;;;-3.26;83.32
21240;BME280;10778;48.962;9.018;2023-02-28T01:52:25;99854.81;;;-3.28;83.50
21240;BME280;10778;48.962;9.018;2023-02-28T01:54:55;99855.69;;;-3.29;83.99
21240;BME280;10778;48.962;9.018;2023-02-28T01:57:27;99853.09;;;-3.29;84.16
21240;BME280;10778;48.962;9.018;2023-02-28T01:59:57;99857.56;;;-3.37;84.49
21240;BME280;10778;48.962;9.018;2023-02-28T02:02:26;99852.28;;;-3.31;84.60
21240;BME280;10778;48.962;9.018;2023-02-28T02:05:06;99851.63;;;-3.40;84.69
21240;BME280;10778;48.962;9.018;2023-02-28T02:07:38;99851.56;;;-3.36;85.02
21240;BME280;10778;48.962;9.018;2023-02-28T02:10:20;99845.53;;;-3.36;85.04
21240;BME280;10778;48.962;9.018;2023-02-28T02:19:14;99839.41;;;-3.29;84.51
21240;BME280;10778;48.962;9.018;2023-02-28T02:26:55;99833.53;;;-3.36;85.51
21240;BME280;10778;48.962;9.018;2023-02-28T02:32:20;99826.63;;;-3.32;85.97
21240;BME280;10778;48.962;9.018;2023-02-28T02:35:16;99824.63;;;-3.19;84.97
21240;BME280;10778;48.962;9.018;2023-02-28T02:40:18;99829.13;;;-3.29;85.33
21240;BME280;10778;48.962;9.018;2023-02-28T02:43:22;99817.72;;;-3.17;85.48
21240;BME280;10778;48.962;9.018;2023-02-28T02:45:59;99826.25;;;-3.15;84.61
21240;BME280;10778;48.962;9.018;2023-02-28T02:48:31;99825.41;;;-3.16;85.00
21240;BME280;10778;48.962;9.018;2023-02-28T02:51:01;99827.75;;;-3.06;84.81
21240;BME280;10778;48.962;9.018;2023-02-28T02:53:35;99825.09;;;-3.02;84.07
21240;BME280;10778;48.962;9.018;2023-02-28T02:56:03;99828.81;;;-3.15;84.89
21240;BME280;10778;48.962;9.018;2023-02-28T02:58:38;99824.56;;;-3.16;85.17
21240;BME280;10778;48.962;9.018;2023-02-28T03:01:13;99833.78;;;-3.07;84.72
21240;BME280;10778;48.962;9.018;2023-02-28T03:03:43;99827.84;;;-3.11;85.18
21240;BME280;10778;48.962;9.018;2023-02-28T03:06:09;99824.41;;;-3.10;85.06
21240;BME280;10778;48.962;9.018;2023-02-28T03:08:37;99828.72;;;-3.10;85.01
21240;BME280;10778;48.962;9.018;2023-02-28T03:11:09;99822.69;;;-3.09;85.26
21240;BME280;10778;48.962;9.018;2023-02-28T03:16:32;99829.38;;;-3.02;84.53
21240;BME280;10778;48.962;9.018;2023-02-28T03:24:49;99826.00;;;-3.04;84.55
21240;BME280;10778;48.962;9.018;2023-02-28T03:30:36;99825.84;;;-2.96;84.63
21240;BME280;10778;48.962;9.018;2023-02-28T03:33:09;99826.63;;;-2.93;84.59
21240;BME280;10778;48.962;9.018;2023-02-28T03:36:01;99824.00;;;-2.91;84.75
21240;BME280;10778;48.962;9.018;2023-02-28T03:39:02;99830.25;;;-3.02;85.42
21240;BME280;10778;48.962;9.018;2023-02-28T03:41:35;99832.75;;;-2.98;85.49
21240;BME280;10778;48.962;9.018;2023-02-28T03:44:10;99833.28;;;-2.82;84.03
21240;BME280;10778;48.962;9.018;2023-02-28T03:46:46;99831.59;;;-2.85;84.67
21240;BME280;10778;48.962;9.018;2023-02-28T03:49:18;99825.88;;;-2.98;84.42
21240;BME280;10778;48.962;9.018;2023-02-28T03:51:47;99828.41;;;-2.96;84.77
21240;BME280;10778;48.962;9.018;2023-02-28T03:54:38;99831.06;;;-3.00;85.27
21240;BME280;10778;48.962;9.018;2023-02-28T03:57:12;99833.63;;;-2.98;85.20
21240;BME280;10778;48.962;9.018;2023-02-28T03:59:47;99826.78;;;-2.99;85.64
21240;BME280;10778;48.962;9.018;2023-02-28T04:02:16;99827.50;;;-2.94;84.62
21240;BME280;10778;48.962;9.018;2023-02-28T04:04:47;99824.13;;;-2.96;84.95
21240;BME280;10778;48.962;9.018;2023-02-28T04:07:15;99836.66;;;-2.80;83.78
21240;BME280;10778;48.962;9.018;2023-02-28T04:09:41;99834.09;;;-2.82;84.32
21240;BME280;10778;48.962;9.018;2023-02-28T04:12:08;99835.78;;;-2.79;84.49
21240;BME280;10778;48.962;9.018;2023-02-28T04:14:34;99843.53;;;-2.81;84.15
21240;BME280;10778;48.962;9.018;2023-02-28T04:17:00;99843.75;;;-2.90;84.56
21240;BME280;10778;48.962;9.018;2023-02-28T04:19:26;99843.59;;;-2.84;85.33
21240;BME280;10778;48.962;9.018;2023-02-28T04:21:53;99846.31;;;-2.90;85.18
21240;BME280;10778;48.962;9.018;2023-02-28T04:24:24;99837.53;;;-2.81;84.65
21240;BME280;10778;48.962;9.018;2023-02-28T04:26:53;99843.44;;;-2.78;84.51
21240;BME280;10778;48.962;9.018;2023-02-28T04:29:27;99842.63;;;-2.80;84.47
21240;BME280;10778;48.962;9.018;2023-02-28T04:31:58;99842.88;;;-2.91;84.56
21240;BME280;10778;48.962;9.018;2023-02-28T04:34:26;99837.59;;;-2.84;84.92
21240;BME280;10778;48.962;9.018;2023-02-28T04:37:18;99842.81;;;-2.88;84.84
21240;BME280;10778;48.962;9.018;2023-02-28T04:39:44;99835.13;;;-2.89;84.47
21240;BME280;10778;48.962;9.018;2023-02-28T04:42:12;99832.56;;;-2.89;84.90
21240;BME280;10778;48.962;9.018;2023-02-28T04:44:38;99836.06;;;-2.93;85.16
21240;BME280;10778;48.962;9.018;2023-02-28T04:47:04;99833.44;;;-2.90;85.28
21240;BME280;10778;48.962;9.018;2023-02-28T04:49:31;99832.31;;;-2.78;85.05
21240;BME280;10778;48.962;9.018;2023-02-28T04:51:57;99832.41;;;-2.83;85.52
21240;BME280;10778;48.962;9.018;2023-02-28T04:54:23;99830.72;;;-2.84;85.08
21240;BME280;10778;48.962;9.018;2023-02-28T04:56:49;99829.94;;;-2.88;84.51
21240;BME280;10778;48.962;9.018;2023-02-28T04:59:15;99832.44;;;-2.84;85.03
21240;BME280;10778;48.962;9.018;2023-02-28T05:01:46;99827.22;;;-2.81;85.41
21240;BME280;10778;48.962;9.018;2023-02-28T05:04:12;99837.56;;;-2.83;85.00
21240;BME280;10778;48.962;9.018;2023-02-28T05:06:38;99846.03;;;-2.78;85.60
21240;BME280;10778;48.962;9.018;2023-02-28T05:09:04;99843.38;;;-2.75;84.51
21240;BME280;10778;48.962;9.018;2023-02-28T05:11:32;99840.03;;;-2.78;84.95
21240;BME280;10778;48.962;9.018;2023-02-28T05:14:13;99844.31;;;-2.79;84.75
21240;BME280;10778;48.962;9.018;2023-02-28T05:16:39;99837.47;;;-2.78;84.54
21240;BME280;10778;48.962;9.018;2023-02-28T05:19:06;99840.63;;;-2.67;84.57
21240;BME280;10778;48.962;9.018;2023-02-28T05:21:34;99838.66;;;-2.57;83.49
21240;BME280;10778;48.962;9.018;2023-02-28T05:24:06;99841.28;;;-2.59;82.97
21240;BME280;10778;48.962;9.018;2023-02-28T05:26:35;99836.25;;;-2.63;83.50
21240;BME280;10778;48.962;9.018;2023-02-28T05:29:02;99839.44;;;-2.53;82.83
21240;BME280;10778;48.962;9.018;2023-02-28T05:31:29;99835.09;;;-2.51;83.32
21240;BME280;10778;48.962;9.018;2023-02-28T05:33:55;99845.22;;;-2.44;81.91
21240;BME280;10778;48.962;9.018;2023-02-28T05:36:21;99846.59;;;-2.29;82.10
21240;BME280;10778;48.962;9.018;2023-02-28T05:38:48;99850.16;;;-2.34;82.96
21240;BME280;10778;48.962;9.018;2023-02-28T05:41:15;99840.66;;;-2.31;83.89
21240;BME280;10778;48.962;9.018;2023-02-28T05:43:41;99844.28;;;-2.05;85.48
21240;BME280;10778;48.962;9.018;2023-02-28T05:46:09;99847.91;;;-2.12;81.71
21240;BME280;10778;48.962;9.018;2023-02-28T05:48:37;99844.38;;;-2.08;82.45
21240;BME280;10778;48.962;9.018;2023-02-28T05:51:05;99848.53;;;-2.02;81.87
21240;BME280;10778;48.962;9.018;2023-02-28T05:53:32;99847.56;;;-1.98;82.67
21240;BME280;10778;48.962;9.018;2023-02-28T05:56:05;99834.16;;;-0.07;100.00
21240;BME280;10778;48.962;9.018;2023-02-28T05:58:42;99840.91;;;-0.03;85.64
21240;BME280;10778;48.962;9.018;2023-02-28T06:04:41;99838.25;;;-0.01;77.05
21240;BME280;10778;48.962;9.018;2023-02-28T06:07:32;99833.28;;;-0.33;74.19
21240;BME280;10778;48.962;9.018;2023-02-28T06:10:04;99841.19;;;-0.10;76.66
21240;BME280;10778;48.962;9.018;2023-02-28T06:12:34;99836.81;;;0.41;76.66
21240;BME280;10778;48.962;9.018;2023-02-28T06:15:39;99840.13;;;0.21;73.98
21240;BME280;10778;48.962;9.018;2023-02-28T06:18:17;99840.53;;;0.34;74.23
21240;BME280;10778;48.962;9.018;2023-02-28T06:20:59;99847.31;;;0.12;74.33
21240;BME280;10778;48.962;9.018;2023-02-28T06:23:28;99851.00;;;-0.76;73.99
21240;BME280;10778;48.962;9.018;2023-02-28T06:25:56;99859.41;;;-1.27;75.01
21240;BME280;10778;48.962;9.018;2023-02-28T06:28:25;99856.25;;;-1.37;76.08
21240;BME280;10778;48.962;9.018;2023-02-28T06:30:54;99856.34;;;-1.40;77.74
21240;BME280;10778;48.962;9.018;2023-02-28T06:33:23;99856.88;;;-1.61;77.45
21240;BME280;10778;48.962;9.018;2023-02-28T06:35:50;99863.84;;;-1.64;78.28
21240;BME280;10778;48.962;9.018;2023-02-28T06:38:18;99860.53;;;-1.68;78.53
21240;BME280;10778;48.962;9.018;2023-02-28T06:40:53;99863.25;;;-1.74;78.42
21240;BME280;10778;48.962;9.018;2023-02-28T06:43:22;99861.34;;;-1.67;80.45
21240;BME280;10778;48.962;9.018;2023-02-28T06:45:55;99870.31;;;-1.81;79.70
21240;BME280;10778;48.962;9.018;2023-02-28T06:48:21;99877.09;;;-1.77;80.29
21240;BME280;10778;48.962;9.018;2023-02-28T06:50:48;99878.19;;;-1.86;80.71
21240;BME280;10778;48.962;9.018;2023-02-28T06:53:17;99886.03;;;-1.90;80.48
21240;BME280;10778;48.962;9.018;2023-02-28T06:55:43;99880.19;;;-1.64;80.87
21240;BME280;10778;48.962;9.018;2023-02-28T06:58:09;99890.81;;;-1.76;80.18
21240;BME280;10778;48.962;9.018;2023-02-28T07:00:51;99899.22;;;-1.68;81.51
21240;BME280;10778;48.962;9.018;2023-02-28T07:03:25;99888.94;;;-1.69;81.13
21240;BME280;10778;48.962;9.018;2023-02-28T07:05:52;99892.50;;;-1.74;81.63
21240;BME280;10778;48.962;9.018;2023-02-28T07:08:20;99897.69;;;-1.75;80.40
21240;BME280;10778;48.962;9.018;2023-02-28T07:10:47;99905.38;;;-1.74;81.68
21240;BME280;10778;48.962;9.018;2023-02-28T07:13:13;99893.00;;;-1.61;80.81
21240;BME280;10778;48.962;9.018;2023-02-28T07:15:39;99888.34;;;-1.48;82.10
21240;BME280;10778;48.962;9.018;2023-02-28T07:18:05;99896.38;;;-1.59;82.92
21240;BME280;10778;48.962;9.018;2023-02-28T07:20:50;99893.69;;;-1.54;81.85
21240;BME280;10778;48.962;9.018;2023-02-28T07:27:06;99895.50;;;-1.58;80.34
21240;BME280;10778;48.962;9.018;2023-02-28T07:30:29;99894.38;;;-1.47;81.90
21240;BME280;10778;48.962;9.018;2023-02-28T07:32:55;99911.22;;;-1.34;80.84
21240;BME280;10778;48.962;9.018;2023-02-28T07:35:30;99896.88;;;-1.44;80.35
21240;BME280;10778;48.962;9.018;2023-02-28T07:38:02;99902.91;;;-1.45;78.66
21240;BME280;10778;48.962;9.018;2023-02-28T07:40:41;99909.34;;;-1.60;78.00
21240;BME280;10778;48.962;9.018;2023-02-28T07:43:07;99912.00;;;-1.63;77.89
21240;BME280;10778;48.962;9.018;2023-02-28T07:45:34;99908.69;;;-1.68;77.48
21240;BME280;10778;48.962;9.018;2023-02-28T07:48:00;99909.09;;;-1.51;77.71
21240;BME280;10778;48.962;9.018;2023-02-28T07:50:26;99911.84;;;-1.57;77.20
21240;BME280;10778;48.962;9.018;2023-02-28T07:52:58;99922.88;;;-1.52;78.12
21240;BME280;10778;48.962;9.018;2023-02-28T07:55:31;99913.72;;;-1.62;77.57
21240;BME280;10778;48.962;9.018;2023-02-28T07:57:57;99916.19;;;-1.59;77.60
21240;BME280;10778;48.962;9.018;2023-02-28T08:00:24;99921.97;;;-1.49;78.23
21240;BME280;10778;48.962;9.018;2023-02-28T08:02:50;99916.91;;;-1.22;76.90
21240;BME280;10778;48.962;9.018;2023-02-28T08:05:17;99912.16;;;-1.36;77.09
21240;BME280;10778;48.962;9.018;2023-02-28T08:07:43;99912.94;;;-1.34;76.64
21240;BME280;10778;48.962;9.018;2023-02-28T08:10:09;99907.22;;;-1.46;76.43
21240;BME280;10778;48.962;9.018;2023-02-28T08:12:39;99912.13;;;-1.35;77.08
21240;BME280;10778;48.962;9.018;2023-02-28T08:15:08;99921.16;;;-1.20;76.59
21240;BME280;10778;48.962;9.018;2023-02-28T08:18:16;99914.22;;;-1.18;75.75
21240;BME280;10778;48.962;9.018;2023-02-28T08:20:48;99922.53;;;-1.08;75.74
21240;BME280;10778;48.962;9.018;2023-02-28T08:23:18;99920.56;;;-1.30;75.72
21240;BME280;10778;48.962;9.018;2023-02-28T08:25:53;99927.78;;;-1.09;75.44
21240;BME280;10778;48.962;9.018;2023-02-28T08:28:32;99920.72;;;-1.04;76.53
21240;BME280;10778;48.962;9.018;2023-02-28T08:31:06;99921.50;;;-1.01;75.75
21240;BME280;10778;48.962;9.018;2023-02-28T08:33:44;99921.22;;;-0.91;75.25
21240;BME280;10778;48.962;9.018;2023-02-28T08:36:17;99918.94;;;-0.72;74.78
21240;BME280;10778;48.962;9.018;2023-02-28T08:39:01;99926.28;;;-0.88;75.10
21240;BME280;10778;48.962;9.018;2023-02-28T08:41:30;99918.09;;;-0.73;74.58
21240;BME280;10778;48.962;9.018;2023-02-28T08:43:56;99925.63;;;-0.65;74.64
21240;BME280;10778;48.962;9.018;2023-02-28T08:46:25;99920.88;;;-0.79;74.85
21240;BME280;10778;48.962;9.018;2023-02-28T08:48:55;99920.53;;;-0.68;75.72
21240;BME280;10778;48.962;9.018;2023-02-28T08:51:26;99925.69;;;-0.66;74.13
21240;BME280;10778;48.962;9.018;2023-02-28T08:53:58;99930.75;;;-0.63;74.25
21240;BME280;10778;48.962;9.018;2023-02-28T08:56:26;99929.50;;;-0.50;73.98
21240;BME280;10778;48.962;9.018;2023-02-28T08:58:55;99925.78;;;-0.41;73.30
21240;BME280;10778;48.962;9.018;2023-02-28T09:01:26;99929.59;;;-0.26;72.27
21240;BME280;10778;48.962;9.018;2023-02-28T09:03:54;99929.19;;;-0.40;71.01
21240;BME280;10778;48.962;9.018;2023-02-28T09:06:23;99922.69;;;0.02;71.04
21240;BME280;10778;48.962;9.018;2023-02-28T09:08:53;99926.19;;;0.53;69.06
21240;BME280;10778;48.962;9.018;2023-02-28T09:11:22;99920.34;;;0.72;66.82
21240;BME280;10778;48.962;9.018;2023-02-28T09:13:49;99917.38;;;0.82;67.41
21240;BME280;10778;48.962;9.018;2023-02-28T09:16:19;99922.69;;;0.54;67.02
21240;BME280;10778;48.962;9.018;2023-02-28T09:18:45;99915.63;;;0.57;66.44
21240;BME280;10778;48.962;9.018;2023-02-28T09:21:13;99927.69;;;1.08;65.21
21240;BME280;10778;48.962;9.018;2023-02-28T09:23:44;99921.47;;;1.12;64.54
21240;BME280;10778;48.962;9.018;2023-02-28T09:26:18;99920.72;;;1.08;63.96
21240;BME280;10778;48.962;9.018;2023-02-28T09:28:45;99925.34;;;1.24;63.29
21240;BME280;10778;48.962;9.018;2023-02-28T09:31:16;99918.25;;;1.29;62.90
21240;BME280;10778;48.962;9.018;2023-02-28T09:33:49;99917.25;;;1.55;63.30
21240;BME280;10778;48.962;9.018;2023-02-28T09:36:15;99913.84;;;1.31;62.00
21240;BME280;10778;48.962;9.018;2023-02-28T09:38:41;99924.38;;;1.26;63.38
21240;BME280;10778;48.962;9.018;2023-02-28T09:41:17;99923.03;;;1.40;62.81
21240;BME280;10778;48.962;9.018;2023-02-28T09:43:51;99925.31;;;1.48;63.14
21240;BME280;10778;48.962;9.018;2023-02-28T09:46:29;99925.31;;;1.48;63.25
21240;BME280;10778;48.962;9.018;2023-02-28T09:49:00;99924.09;;;1.34;63.53
21240;BME280;10778;48.962;9.018;2023-02-28T09:54:20;99924.78;;;0.92;63.18
21240;BME280;10778;48.962;9.018;2023-02-28T09:57:08;99929.53;;;1.04;63.41
21240;BME280;10778;48.962;9.018;2023-02-28T10:00:14;99928.25;;;0.92;63.70
21240;BME280;10778;48.962;9.018;2023-02-28T10:02:57;99934.94;;;0.98;63.87
21240;BME280;10778;48.962;9.018;2023-02-28T10:05:34;99935.00;;;0.96;63.45
21240;BME280;10778;48.962;9.018;2023-02-28T10:08:17;99939.91;;;1.04;63.32
21240;BME280;10778;48.962;9.018;2023-02-28T10:10:51;99939.06;;;1.04;63.58
21240;BME280;10778;48.962;9.018;2023-02-28T10:13:34;99935.44;;;1.08;63.22
21240;BME280;10778;48.962;9.018;2023-02-28T10:19:31;99933.09;;;1.48;62.46
21240;BME280;10778;48.962;9.018;2023-02-28T10:22:17;99934.25;;;1.63;61.73
21240;BME280;10778;48.962;9.018;2023-02-28T10:24:50;99946.78;;;1.51;62.14
21240;BME280;10778;48.962;9.018;2023-02-28T10:27:24;99934.19;;;1.64;62.82
21240;BME280;10778;48.962;9.018;2023-02-28T10:30:01;99941.53;;;1.53;61.81
21240;BME280;10778;48.962;9.018;2023-02-28T10:32:32;99942.13;;;1.37;61.68
21240;BME280;10778;48.962;9.018;2023-02-28T10:37:41;99953.16;;;1.42;62.22
21240;BME280;10778;48.962;9.018;2023-02-28T10:40:32;99952.31;;;1.87;61.17
21240;BME280;10778;48.962;9.018;2023-02-28T10:45:26;99939.84;;;2.79;59.03
21240;BME280;10778;48.962;9.018;2023-02-28T10:50:51;99922.66;;;4.25;55.60
21240;BME280;10778;48.962;9.018;2023-02-28T11:03:42;99924.53;;;6.03;51.56
21240;BME280;10778;48.962;9.018;2023-02-28T11:08:45;99902.78;;;5.40;53.29
21240;BME280;10778;48.962;9.018;2023-02-28T11:11:12;99914.06;;;5.40;52.54
21240;BME280;10778;48.962;9.018;2023-02-28T11:13:38;99920.22;;;6.33;51.04
21240;BME280;10778;48.962;9.018;2023-02-28T11:16:06;99909.16;;;6.73;49.71
21240;BME280;10778;48.962;9.018;2023-02-28T11:18:48;99907.97;;;5.56;50.32
21240;BME280;10778;48.962;9.018;2023-02-28T11:21:31;99900.69;;;5.93;50.55
21240;BME280;10778;48.962;9.018;2023-02-28T11:24:27;99893.81;;;6.95;49.44
21240;BME280;10778;48.962;9.018;2023-02-28T11:26:54;99897.28;;;6.52;49.22
21240;BME280;10778;48.962;9.018;2023-02-28T11:29:26;99897.19;;;6.97;49.16
21240;BME280;10778;48.962;9.018;2023-02-28T11:32:25;99893.72;;;7.11;47.86
21240;BME280;10778;48.962;9.018;2023-02-28T11:35:14;99886.88;;;7.23;48.55
21240;BME280;10778;48.962;9.018;2023-02-28T11:37:45;99886.16;;;7.07;47.23
21240;BME280;10778;48.962;9.018;2023-02-28T11:40:18;99890.66;;;6.47;47.97
21240;BME280;10778;48.962;9.018;2023-02-28T11:43:13;99886.06;;;6.50;48.33
21240;BME280;10778;48.962;9.018;2023-02-28T11:46:18;99892.13;;;7.09;47.96
21240;BME280;10778;48.962;9.018;2023-02-28T11:48:58;99893.56;;;6.86;48.18
21240;BME280;10778;48.962;9.018;2023-02-28T11:51:53;99898.59;;;6.74;48.99
21240;BME280;10778;48.962;9.018;2023-02-28T11:54:50;99885.78;;;6.40;48.12
21240;BME280;10778;48.962;9.018;2023-02-28T12:04:09;99894.88;;;5.25;51.06
21240;BME280;10778;48.962;9.018;2023-02-28T12:07:20;99889.41;;;5.30;50.54
21240;BME280;10778;48.962;9.018;2023-02-28T12:13:24;99886.22;;;5.25;52.21
21240;BME280;10778;48.962;9.018;2023-02-28T12:16:38;99877.94;;;4.84;51.84
21240;BME280;10778;48.962;9.018;2023-02-28T12:19:39;99879.72;;;5.00;51.22
21240;BME280;10778;48.962;9.018;2023-02-28T12:31:29;99872.00;;;4.98;52.85
21240;BME280;10778;48.962;9.018;2023-02-28T12:34:13;99867.59;;;5.31;51.66
21240;BME280;10778;48.962;9.018;2023-02-28T12:36:45;99857.28;;;4.97;51.77
21240;BME280;10778;48.962;9.018;2023-02-28T12:39:29;99868.88;;;4.92;52.84
21240;BME280;10778;48.962;9.018;2023-02-28T12:42:10;99866.41;;;4.39;53.79
21240;BME280;10778;48.962;9.018;2023-02-28T12:44:46;99862.72;;;4.93;52.76
21240;BME280;10778;48.962;9.018;2023-02-28T12:47:18;99853.81;;;5.76;51.51
21240;BME280;10778;48.962;9.018;2023-02-28T12:49:51;99859.09;;;6.50;50.75
21240;BME280;10778;48.962;9.018;2023-02-28T12:52:28;99854.81;;;5.73;50.89
21240;BME280;10778;48.962;9.018;2023-02-28T12:55:04;99845.13;;;6.06;50.14
21240;BME280;10778;48.962;9.018;2023-02-28T12:57:43;99844.41;;;6.91;49.02
21240;BME280;10778;48.962;9.018;2023-02-28T13:00:18;99838.16;;;6.93;48.69
21240;BME280;10778;48.962;9.018;2023-02-28T13:06:05;99827.19;;;7.01;49.57
21240;BME280;10778;48.962;9.018;2023-02-28T13:11:32;99833.59;;;6.53;49.42
21240;BME280;10778;48.962;9.018;2023-02-28T13:14:01;99839.66;;;6.10;49.73
21240;BME280;10778;48.962;9.018;2023-02-28T13:16:28;99834.28;;;5.97;50.71
21240;BME280;10778;48.962;9.018;2023-02-28T13:19:08;99839.88;;;6.51;50.29
21240;BME280;10778;48.962;9.018;2023-02-28T13:21:42;99836.38;;;6.21;49.20
21240;BME280;10778;48.962;9.018;2023-02-28T13:24:11;99833.91;;;6.34;50.11
21240;BME280;10778;48.962;9.018;2023-02-28T13:47:41;99836.69;;;6.46;49.57
21240;BME280;10778;48.962;9.018;2023-02-28T13:50:35;99834.91;;;6.46;50.28
21240;BME280;10778;48.962;9.018;2023-02-28T13:58:35;99833.50;;;6.69;48.43
21240;BME280;10778;48.962;9.018;2023-02-28T14:01:16;99830.09;;;6.96;48.66
21240;BME280;10778;48.962;9.018;2023-02-28T14:06:53;99826.91;;;7.33;48.53
21240;BME280;10778;48.962;9.018;2023-02-28T14:09:24;99841.63;;;7.21;49.51
21240;BME280;10778;48.962;9.018;2023-02-28T14:11:52;99839.56;;;6.70;50.12
21240;BME280;10778;48.962;9.018;2023-02-28T14:17:05;99837.13;;;7.51;47.88
21240;BME280;10778;48.962;9.018;2023-02-28T14:19:32;99828.81;;;7.31;48.39
21240;BME280;10778;48.962;9.018;2023-02-28T14:22:05;99840.50;;;6.40;49.84
21240;BME280;10778;48.962;9.018;2023-02-28T14:30:13;99832.88;;;5.92;50.76
21240;BME280;10778;48.962;9.018;2023-02-28T14:38:30;99824.97;;;6.95;49.30
21240;BME280;10778;48.962;9.018;2023-02-28T14:41:00;99832.38;;;6.74;49.48
21240;BME280;10778;48.962;9.018;2023-02-28T14:43:28;99824.59;;;7.01;49.90
21240;BME280;10778;48.962;9.018;2023-02-28T14:46:02;99830.72;;;6.58;49.59
21240;BME280;10778;48.962;9.018;2023-02-28T14:48:30;99840.91;;;6.63;50.45
21240;BME280;10778;48.962;9.018;2023-02-28T14:51:00;99829.50;;;6.49;50.35
21240;BME280;10778;48.962;9.018;2023-02-28T14:53:35;99845.28;;;6.48;50.93
21240;BME280;10778;48.962;9.018;2023-02-28T14:56:02;99841.63;;;6.50;51.30
21240;BME280;10778;48.962;9.018;2023-02-28T14:58:30;99842.78;;;6.61;50.76
21240;BME280;10778;48.962;9.018;2023-02-28T15:01:00;99837.34;;;6.78;51.47
21240;BME280;10778;48.962;9.018;2023-02-28T15:06:00;99840.63;;;6.53;50.96
21240;BME280;10778;48.962;9.018;2023-02-28T15:08:28;99836.13;;;6.40;50.94
21240;BME280;10778;48.962;9.018;2023-02-28T15:13:36;99845.25;;;6.91;50.75
21240;BME280;10778;48.962;9.018;2023-02-28T15:16:04;99846.19;;;6.47;50.69
21240;BME280;10778;48.962;9.018;2023-02-28T15:18:46;99847.06;;;6.47;50.39
21240;BME280;10778;48.962;9.018;2023-02-28T15:21:18;99847.81;;;6.64;51.20
21240;BME280;10778;48.962;9.018;2023-02-28T15:23:50;99838.25;;;6.19;50.70
21240;BME280;10778;48.962;9.018;2023-02-28T15:26:20;99849.09;;;5.97;52.00
21240;BME280;10778;48.962;9.018;2023-02-28T15:28:51;99848.25;;;6.27;52.40
21240;BME280;10778;48.962;9.018;2023-02-28T15:31:21;99844.19;;;6.07;52.27
21240;BME280;10778;48.962;9.018;2023-02-28T15:33:57;99852.44;;;5.84;51.93
21240;BME280;10778;48.962;9.018;2023-02-28T15:36:26;99848.56;;;5.45;52.18
21240;BME280;10778;48.962;9.018;2023-02-28T15:38:55;99858.50;;;5.54;53.01
21240;BME280;10778;48.962;9.018;2023-02-28T15:41:24;99854.56;;;5.31;52.98
21240;BME280;10778;48.962;9.018;2023-02-28T15:44:17;99847.25;;;5.68;60.34
21240;BME280;10778;48.962;9.018;2023-02-28T15:49:25;99838.97;;;5.76;55.26
21240;BME280;10778;48.962;9.018;2023-02-28T15:51:52;99846.66;;;6.10;56.29
21240;BME280;10778;48.962;9.018;2023-02-28T15:54:22;99844.19;;;6.07;54.15
21240;BME280;10778;48.962;9.018;2023-02-28T15:56:55;99836.47;;;5.89;53.12